createdAt,value
2018-08-04T00:00:36.078Z,3.87
2018-08-04T00:03:03.899Z,4.10
2018-08-04T00:05:31.713Z,3.30
2018-08-04T00:07:59.550Z,3.67
2018-08-04T00:10:27.384Z,3.83
2018-08-04T00:12:55.236Z,3.83
2018-08-04T00:15:23.078Z,4.10
2018-08-04T00:17:50.918Z,4.13
2018-08-04T00:20:18.758Z,4.30
2018-08-04T00:22:46.994Z,4.90
2018-08-04T00:25:14.826Z,4.13
2018-08-04T00:27:42.679Z,4.40
2018-08-04T00:30:12.834Z,4.47
2018-08-04T00:32:41.125Z,3.90
2018-08-04T00:35:09.512Z,5.20
2018-08-04T00:37:37.412Z,5.30
2018-08-04T00:40:05.677Z,4.80
2018-08-04T00:42:33.527Z,4.60
2018-08-04T00:45:01.351Z,4.70
2018-08-04T00:47:29.185Z,4.50
2018-08-04T00:49:57.064Z,5.27
2018-08-04T00:52:24.870Z,6.03
2018-08-04T00:54:52.698Z,5.00
2018-08-04T00:57:20.546Z,5.13
2018-08-04T00:59:48.374Z,4.40
2018-08-04T01:02:16.201Z,5.40
2018-08-04T01:04:44.054Z,4.70
2018-08-04T01:07:11.918Z,5.60
2018-08-04T01:09:39.757Z,5.90
2018-08-04T01:12:07.583Z,5.40
2018-08-04T01:14:35.417Z,5.50
2018-08-04T01:17:03.241Z,5.87
2018-08-04T01:19:31.071Z,6.50
2018-08-04T01:21:58.904Z,5.33
2018-08-04T01:24:26.746Z,5.67
2018-08-04T01:26:54.585Z,5.20
2018-08-04T01:29:23.430Z,5.60
2018-08-04T01:31:51.263Z,5.57
2018-08-04T01:34:19.102Z,6.53
2018-08-04T01:36:46.945Z,6.57
2018-08-04T01:39:14.781Z,5.73
2018-08-04T01:41:42.605Z,6.33
2018-08-04T01:44:10.456Z,7.10
2018-08-04T01:46:38.278Z,5.83
2018-08-04T01:49:06.138Z,6.53
2018-08-04T01:51:33.993Z,6.83
2018-08-04T01:54:01.835Z,5.93
2018-08-04T01:56:29.666Z,6.07
2018-08-04T01:58:57.513Z,5.33
2018-08-04T02:01:25.346Z,6.20
2018-08-04T02:03:53.177Z,6.87
2018-08-04T02:06:21.026Z,7.13
2018-08-04T02:08:48.902Z,7.33
2018-08-04T02:11:16.741Z,6.60
2018-08-04T02:13:44.640Z,7.53
2018-08-04T02:16:12.469Z,6.90
2018-08-04T02:18:40.318Z,7.10
2018-08-04T02:21:08.147Z,7.63
2018-08-04T02:23:35.994Z,7.17
2018-08-04T02:26:03.836Z,6.57
2018-08-04T02:28:31.694Z,6.33
2018-08-04T02:30:59.531Z,6.13
2018-08-04T02:33:27.362Z,6.40
2018-08-04T02:35:55.205Z,6.70
2018-08-04T02:38:23.030Z,7.03
2018-08-04T02:40:50.863Z,6.43
2018-08-04T02:43:18.701Z,7.00
2018-08-04T02:45:46.558Z,7.17
2018-08-04T02:48:14.478Z,6.80
2018-08-04T02:50:42.315Z,7.87
2018-08-04T02:53:10.169Z,7.17
2018-08-04T02:55:38.032Z,7.77
2018-08-04T02:58:05.878Z,7.97
2018-08-04T03:00:33.718Z,7.30
2018-08-04T03:03:01.569Z,8.00
2018-08-04T03:05:29.409Z,7.80
2018-08-04T03:07:57.241Z,7.40
2018-08-04T03:10:25.253Z,7.50
2018-08-04T03:12:53.096Z,7.23
2018-08-04T03:15:20.940Z,7.33
2018-08-04T03:17:49.086Z,7.80
2018-08-04T03:20:16.935Z,8.47
2018-08-04T03:22:44.767Z,8.10
2018-08-04T03:25:12.619Z,7.57
2018-08-04T03:27:40.655Z,6.93
2018-08-04T03:30:08.518Z,7.17
2018-08-04T03:32:36.357Z,8.10
2018-08-04T03:35:04.229Z,7.77
2018-08-04T03:37:32.059Z,7.90
2018-08-04T03:40:00.024Z,7.43
2018-08-04T03:42:27.855Z,7.43
2018-08-04T03:44:55.697Z,8.43
2018-08-04T03:47:23.534Z,7.83
2018-08-04T03:49:51.396Z,8.30
2018-08-04T03:52:19.230Z,8.77
2018-08-04T03:54:47.114Z,8.10
2018-08-04T03:57:14.977Z,8.00
2018-08-04T03:59:42.903Z,9.07
2018-08-04T04:02:10.701Z,7.80
2018-08-04T04:04:38.542Z,7.80
2018-08-04T04:07:06.444Z,7.43
2018-08-04T04:09:34.268Z,7.13
2018-08-04T04:12:02.193Z,7.30
2018-08-04T04:14:30.022Z,7.33
2018-08-04T04:16:57.849Z,6.17
2018-08-04T04:19:25.680Z,7.33
2018-08-04T04:21:53.502Z,8.27
2018-08-04T04:24:21.370Z,7.20
2018-08-04T04:26:49.198Z,6.53
2018-08-04T04:29:17.021Z,7.10
2018-08-04T04:31:44.858Z,7.10
2018-08-04T04:34:12.694Z,8.10
2018-08-04T04:36:40.538Z,7.27
2018-08-04T04:39:09.362Z,7.13
2018-08-04T04:41:37.365Z,8.30
2018-08-04T04:44:05.365Z,7.80
2018-08-04T04:46:39.298Z,8.50
2018-08-04T04:49:08.613Z,8.97
2018-08-04T04:51:36.440Z,7.47
2018-08-04T04:54:04.598Z,8.40
2018-08-04T04:56:32.433Z,7.90
2018-08-04T04:59:00.270Z,6.77
2018-08-04T05:01:28.270Z,8.23
2018-08-04T05:03:56.186Z,6.87
2018-08-04T05:06:24.026Z,7.47
2018-08-04T05:08:51.845Z,7.20
2018-08-04T05:11:19.695Z,7.33
2018-08-04T05:13:47.532Z,6.70
2018-08-04T05:16:15.390Z,6.83
2018-08-04T05:18:43.258Z,8.27
2018-08-04T05:21:11.098Z,6.87
2018-08-04T05:23:38.942Z,7.30
2018-08-04T05:26:06.787Z,7.20
2018-08-04T05:28:34.627Z,6.90
2018-08-04T05:31:03.312Z,7.67
2018-08-04T05:33:31.142Z,8.43
2018-08-04T05:35:58.986Z,7.47
2018-08-04T05:38:26.821Z,7.63
2018-08-04T05:40:54.678Z,6.73
2018-08-04T05:43:22.607Z,6.03
2018-08-04T05:45:50.410Z,5.90
2018-08-04T05:48:18.239Z,5.77
2018-08-04T05:50:46.077Z,6.20
2018-08-04T05:53:13.919Z,6.33
2018-08-04T05:55:41.753Z,5.00
2018-08-04T05:58:09.582Z,4.07
2018-08-04T06:00:37.447Z,3.60
2018-08-04T06:03:05.312Z,3.70
2018-08-04T06:05:33.162Z,3.80
2018-08-04T06:08:01.015Z,3.33
2018-08-04T06:10:28.850Z,4.50
2018-08-04T06:12:56.693Z,4.23
2018-08-04T06:15:24.766Z,4.00
2018-08-04T06:17:52.620Z,3.33
2018-08-04T06:20:20.453Z,3.47
2018-08-04T06:22:48.304Z,3.10
2018-08-04T06:25:16.157Z,2.97
2018-08-04T06:27:44.000Z,3.43
2018-08-04T06:30:12.482Z,3.23
2018-08-04T06:32:41.089Z,3.40
2018-08-04T06:35:08.963Z,3.33
2018-08-04T06:37:36.845Z,3.80
2018-08-04T06:40:04.729Z,3.47
2018-08-04T06:42:32.566Z,3.50
2018-08-04T06:45:00.407Z,3.60
2018-08-04T06:47:28.273Z,4.13
2018-08-04T06:49:56.320Z,3.03
2018-08-04T06:52:24.163Z,3.13
2018-08-04T06:54:51.997Z,2.83
2018-08-04T06:57:19.854Z,3.87
2018-08-04T06:59:47.703Z,3.83
2018-08-04T07:02:15.548Z,3.77
2018-08-04T07:04:43.385Z,3.90
2018-08-04T07:07:11.234Z,3.67
2018-08-04T07:09:39.089Z,3.47
2018-08-04T07:12:06.963Z,3.57
2018-08-04T07:14:34.811Z,3.30
2018-08-04T07:17:02.663Z,2.90
2018-08-04T07:19:30.526Z,3.40
2018-08-04T07:21:58.377Z,3.57
2018-08-04T07:24:26.236Z,3.57
2018-08-04T07:26:54.070Z,3.30
2018-08-04T07:29:21.922Z,3.50
2018-08-04T07:31:49.767Z,3.30
2018-08-04T07:34:17.656Z,3.80
2018-08-04T07:36:45.471Z,3.73
2018-08-04T07:39:13.306Z,3.30
2018-08-04T07:41:41.143Z,3.90
2018-08-04T07:44:08.986Z,3.17
2018-08-04T07:46:37.430Z,3.30
2018-08-04T07:49:05.294Z,4.33
2018-08-04T07:51:33.137Z,3.30
2018-08-04T07:54:01.106Z,4.20
2018-08-04T07:56:28.942Z,3.80
2018-08-04T07:58:56.833Z,3.50
2018-08-04T08:01:24.877Z,3.47
2018-08-04T08:03:52.717Z,3.20
2018-08-04T08:06:20.564Z,3.93
2018-08-04T08:08:48.411Z,3.63
2018-08-04T08:11:16.286Z,3.27
2018-08-04T08:13:44.087Z,3.33
2018-08-04T08:16:11.938Z,3.57
2018-08-04T08:18:39.795Z,3.17
2018-08-04T08:21:07.637Z,3.47
2018-08-04T08:23:35.473Z,3.57
2018-08-04T08:26:08.622Z,3.47
2018-08-04T08:28:36.558Z,3.70
2018-08-04T08:31:04.521Z,3.27
2018-08-04T08:33:32.450Z,3.37
2018-08-04T08:36:00.287Z,3.30
2018-08-04T08:38:28.469Z,3.30
2018-08-04T08:40:56.301Z,3.20
2018-08-04T08:43:24.278Z,4.67
2018-08-04T08:45:52.413Z,4.10
2018-08-04T08:48:20.286Z,3.20
2018-08-04T08:50:48.394Z,2.93
2018-08-04T08:53:16.450Z,3.10
2018-08-04T08:55:44.435Z,3.40
2018-08-04T08:58:12.460Z,2.87
2018-08-04T09:00:40.456Z,2.90
2018-08-04T09:03:08.810Z,3.07
2018-08-04T09:05:36.818Z,2.70
2018-08-04T09:08:05.126Z,2.90
2018-08-04T09:10:33.155Z,3.00
2018-08-04T09:13:01.184Z,2.90
2018-08-04T09:15:29.230Z,3.40
2018-08-04T09:17:57.291Z,2.83
2018-08-04T09:20:25.322Z,3.00
2018-08-04T09:22:53.378Z,3.10
2018-08-04T09:25:21.408Z,2.70
2018-08-04T09:27:49.440Z,2.90
2018-08-04T09:30:17.478Z,2.20
2018-08-04T09:32:45.502Z,2.60
2018-08-04T09:35:14.688Z,3.03
2018-08-04T09:37:42.729Z,2.33
2018-08-04T09:40:12.613Z,2.60
2018-08-04T09:42:40.655Z,2.50
2018-08-04T09:45:09.625Z,2.67
2018-08-04T09:47:38.117Z,2.70
2018-08-04T09:50:07.255Z,2.77
2018-08-04T09:52:35.405Z,2.40
2018-08-04T09:55:03.686Z,2.60
2018-08-04T09:57:31.687Z,2.40
2018-08-04T09:59:59.708Z,2.80
2018-08-04T10:02:27.751Z,2.80
2018-08-04T10:04:57.079Z,3.20
2018-08-04T10:07:25.070Z,3.03
2018-08-04T10:09:53.099Z,2.80
2018-08-04T10:12:21.098Z,3.20
2018-08-04T10:14:48.934Z,2.73
2018-08-04T10:17:16.936Z,2.67
2018-08-04T10:19:44.937Z,3.00
2018-08-04T10:22:13.500Z,2.70
2018-08-04T10:24:41.525Z,2.60
2018-08-04T10:27:09.535Z,2.90
2018-08-04T10:29:37.931Z,2.60
2018-08-04T10:32:06.060Z,3.00
2018-08-04T10:34:34.032Z,2.97
2018-08-04T10:37:02.039Z,2.87
2018-08-04T10:39:30.039Z,2.80
2018-08-04T10:41:58.055Z,3.40
2018-08-04T10:44:26.062Z,2.97
2018-08-04T10:46:54.115Z,2.60
2018-08-04T10:49:22.117Z,2.70
2018-08-04T10:51:50.154Z,3.27
2018-08-04T10:54:18.274Z,2.80
2018-08-04T10:56:46.283Z,2.70
2018-08-04T10:59:14.272Z,2.97
2018-08-04T11:01:42.279Z,3.37
2018-08-04T11:04:10.299Z,2.70
2018-08-04T11:06:38.310Z,2.97
2018-08-04T11:09:08.078Z,2.70
2018-08-04T11:11:36.114Z,3.33
2018-08-04T11:14:04.950Z,3.17
2018-08-04T11:16:32.987Z,3.23
2018-08-04T11:19:01.027Z,3.53
2018-08-04T11:21:29.079Z,3.20
2018-08-04T11:23:57.251Z,3.30
2018-08-04T11:26:25.302Z,3.80
2018-08-04T11:28:53.334Z,3.90
2018-08-04T11:31:21.358Z,3.33
2018-08-04T11:33:49.754Z,4.10
2018-08-04T11:36:17.774Z,4.70
2018-08-04T11:38:45.811Z,3.40
2018-08-04T11:41:14.152Z,3.37
2018-08-04T11:43:42.182Z,3.83
2018-08-04T11:46:10.381Z,3.47
2018-08-04T11:48:38.406Z,4.03
2018-08-04T11:51:06.431Z,3.97
2018-08-04T11:53:34.547Z,3.70
2018-08-04T11:56:02.576Z,3.90
2018-08-04T11:58:30.666Z,3.33
2018-08-04T12:00:58.667Z,3.63
2018-08-04T12:03:26.700Z,4.17
2018-08-04T12:05:54.801Z,4.10
2018-08-04T12:08:22.857Z,3.50
2018-08-04T12:10:50.891Z,3.40
2018-08-04T12:13:18.954Z,3.90
2018-08-04T12:15:47.022Z,3.67
2018-08-04T12:18:15.094Z,3.43
2018-08-04T12:20:43.097Z,3.50
2018-08-04T12:23:11.240Z,3.57
2018-08-04T12:25:39.277Z,3.90
2018-08-04T12:28:07.298Z,3.70
2018-08-04T12:30:35.334Z,3.80
2018-08-04T12:33:03.378Z,4.20
2018-08-04T12:35:31.415Z,3.63
2018-08-04T12:37:59.453Z,4.00
2018-08-04T12:40:27.488Z,4.00
2018-08-04T12:42:55.502Z,4.03
2018-08-04T12:45:23.567Z,3.90
2018-08-04T12:47:51.611Z,4.47
2018-08-04T12:50:19.639Z,4.27
2018-08-04T12:52:47.669Z,4.07
2018-08-04T12:55:15.730Z,4.23
2018-08-04T12:57:43.774Z,4.10
2018-08-04T13:00:11.845Z,4.30
2018-08-04T13:02:39.919Z,3.50
2018-08-04T13:05:07.915Z,3.50
2018-08-04T13:07:35.970Z,4.47
2018-08-04T13:10:04.273Z,4.53
2018-08-04T13:12:32.284Z,4.10
2018-08-04T13:15:00.282Z,4.10
2018-08-04T13:17:28.302Z,3.93
2018-08-04T13:19:56.294Z,3.83
2018-08-04T13:22:24.505Z,4.13
2018-08-04T13:24:52.640Z,4.00
2018-08-04T13:27:20.658Z,3.73
2018-08-04T13:29:48.746Z,3.90
2018-08-04T13:32:17.110Z,3.87
2018-08-04T13:34:45.126Z,4.00
2018-08-04T13:37:13.148Z,3.90
2018-08-04T13:39:41.271Z,4.20
2018-08-04T13:42:09.315Z,4.30
2018-08-04T13:44:37.319Z,5.00
2018-08-04T13:47:05.311Z,3.97
2018-08-04T13:49:33.362Z,4.60
2018-08-04T13:52:01.355Z,3.70
2018-08-04T13:54:29.370Z,3.50
2018-08-04T13:56:57.420Z,3.87
2018-08-04T13:59:25.427Z,4.43
2018-08-04T14:01:53.473Z,4.00
2018-08-04T14:04:21.515Z,3.70
2018-08-04T14:06:49.531Z,3.90
2018-08-04T14:09:17.551Z,3.83
2018-08-04T14:11:45.569Z,4.40
2018-08-04T14:14:13.590Z,3.50
2018-08-04T14:16:41.603Z,4.43
2018-08-04T14:19:09.617Z,4.10
2018-08-04T14:21:37.634Z,4.03
2018-08-04T14:24:05.655Z,4.20
2018-08-04T14:26:33.673Z,4.60
2018-08-04T14:29:01.692Z,4.37
2018-08-04T14:31:29.771Z,4.43
2018-08-04T14:33:57.792Z,3.77
2018-08-04T14:36:25.807Z,3.63
2018-08-04T14:38:53.819Z,4.27
2018-08-04T14:41:21.831Z,3.57
2018-08-04T14:43:50.043Z,4.00
2018-08-04T14:46:18.061Z,4.30
2018-08-04T14:48:46.074Z,4.50
2018-08-04T14:51:14.086Z,4.60
2018-08-04T14:53:42.096Z,4.30
2018-08-04T14:56:10.126Z,4.10
2018-08-04T14:58:38.138Z,4.50
2018-08-04T15:01:06.392Z,4.50
2018-08-04T15:03:34.411Z,4.17
2018-08-04T15:06:02.414Z,4.60
2018-08-04T15:08:30.438Z,4.63
2018-08-04T15:10:58.479Z,4.83
2018-08-04T15:13:26.510Z,3.87
2018-08-04T15:15:54.554Z,4.03
2018-08-04T15:18:22.585Z,4.40
2018-08-04T15:20:50.642Z,4.70
2018-08-04T15:23:18.707Z,4.50
2018-08-04T15:25:46.736Z,5.00
2018-08-04T15:28:14.780Z,5.23
2018-08-04T15:30:42.835Z,5.00
2018-08-04T15:33:10.984Z,5.00
2018-08-04T15:35:38.954Z,4.97
2018-08-04T15:38:06.974Z,4.90
2018-08-04T15:40:35.003Z,5.00
2018-08-04T15:43:03.023Z,4.87
2018-08-04T15:45:31.043Z,4.70
2018-08-04T15:47:59.137Z,5.13
2018-08-04T15:50:27.146Z,4.90
2018-08-04T15:52:55.178Z,4.90
2018-08-04T15:55:23.204Z,4.27
2018-08-04T15:57:51.238Z,3.70
2018-08-04T16:00:19.266Z,3.47
2018-08-04T16:02:47.298Z,3.90
2018-08-04T16:05:15.365Z,3.87
2018-08-04T16:07:43.426Z,3.23
2018-08-04T16:10:11.475Z,3.73
2018-08-04T16:12:39.499Z,3.53
2018-08-04T16:15:07.546Z,3.50
2018-08-04T16:17:35.555Z,3.17
2018-08-04T16:20:03.604Z,3.30
2018-08-04T16:22:31.606Z,3.57
2018-08-04T16:24:59.631Z,3.30
2018-08-04T16:27:27.640Z,3.40
2018-08-04T16:29:55.662Z,3.73
2018-08-04T16:32:23.666Z,3.70
2018-08-04T16:34:51.691Z,3.30
2018-08-04T16:37:19.695Z,3.70
2018-08-04T16:39:47.694Z,3.10
2018-08-04T16:42:15.706Z,3.13
2018-08-04T16:44:43.721Z,3.87
2018-08-04T16:47:11.727Z,3.40
2018-08-04T16:49:39.742Z,3.40
2018-08-04T16:52:07.752Z,2.70
2018-08-04T16:54:35.760Z,3.50
2018-08-04T16:57:03.775Z,3.20
2018-08-04T16:59:31.878Z,2.90
2018-08-04T17:01:59.847Z,4.03
2018-08-04T17:04:27.859Z,3.67
2018-08-04T17:06:55.878Z,3.93
2018-08-04T17:09:23.902Z,3.07
2018-08-04T17:11:51.922Z,2.90
2018-08-04T17:14:19.963Z,3.10
2018-08-04T17:16:47.986Z,5.20
2018-08-04T17:19:16.016Z,5.83
2018-08-04T17:21:44.047Z,5.40
2018-08-04T17:24:11.882Z,6.00
2018-08-04T17:26:39.898Z,6.20
2018-08-04T17:29:07.926Z,6.03
2018-08-04T17:31:35.947Z,5.97
2018-08-04T17:34:04.003Z,5.57
2018-08-04T17:36:32.043Z,4.93
2018-08-04T17:39:00.278Z,4.90
2018-08-04T17:41:28.332Z,4.87
2018-08-04T17:43:56.461Z,4.27
2018-08-04T17:46:24.486Z,4.20
2018-08-04T17:48:52.518Z,4.00
2018-08-04T17:51:20.607Z,3.60
2018-08-04T17:53:48.611Z,3.50
2018-08-04T17:56:16.694Z,3.83
2018-08-04T17:58:44.747Z,3.53
2018-08-04T18:01:12.800Z,3.40
2018-08-04T18:03:40.846Z,3.20
2018-08-04T18:06:08.908Z,3.57
2018-08-04T18:08:36.926Z,3.60
2018-08-04T18:11:04.959Z,3.53
2018-08-04T18:13:32.985Z,3.23
2018-08-04T18:16:01.032Z,3.77
2018-08-04T18:18:29.077Z,3.57
2018-08-04T18:20:57.102Z,3.63
2018-08-04T18:23:25.167Z,3.23
2018-08-04T18:25:53.222Z,3.00
2018-08-04T18:28:21.254Z,3.00
2018-08-04T18:30:49.332Z,3.30
2018-08-04T18:33:17.336Z,3.10
2018-08-04T18:35:45.369Z,3.30
2018-08-04T18:38:13.403Z,2.90
2018-08-04T18:40:41.443Z,3.73
2018-08-04T18:43:09.473Z,3.73
2018-08-04T18:45:37.529Z,3.07
2018-08-04T18:48:05.596Z,3.20
2018-08-04T18:50:33.639Z,2.90
2018-08-04T18:53:01.706Z,3.50
2018-08-04T18:55:29.717Z,3.90
2018-08-04T18:57:57.757Z,3.23
2018-08-04T19:00:25.848Z,4.67
2018-08-04T19:02:53.877Z,3.80
2018-08-04T19:05:21.906Z,3.93
2018-08-04T19:07:50.039Z,3.60
2018-08-04T19:10:18.106Z,3.40
2018-08-04T19:12:46.110Z,3.30
2018-08-04T19:15:14.130Z,3.90
2018-08-04T19:17:42.174Z,3.63
2018-08-04T19:20:10.214Z,3.60
2018-08-04T19:22:38.242Z,3.03
2018-08-04T19:25:06.376Z,3.57
2018-08-04T19:27:34.414Z,3.93
2018-08-04T19:30:02.448Z,4.10
2018-08-04T19:32:30.472Z,3.87
2018-08-04T19:34:58.518Z,3.50
2018-08-04T19:37:26.558Z,4.13
2018-08-04T19:39:54.600Z,3.97
2018-08-04T19:42:22.615Z,4.10
2018-08-04T19:44:50.635Z,3.50
2018-08-04T19:47:18.659Z,3.53
2018-08-04T19:49:46.699Z,4.00
2018-08-04T19:52:15.110Z,4.10
2018-08-04T19:54:43.191Z,3.80
2018-08-04T19:57:11.238Z,3.77
2018-08-04T19:59:39.255Z,3.90
2018-08-04T20:02:07.311Z,3.90
2018-08-04T20:04:35.341Z,3.70
2018-08-04T20:07:03.365Z,4.27
2018-08-04T20:09:31.387Z,4.10
2018-08-04T20:11:59.436Z,4.20
2018-08-04T20:14:27.468Z,3.20
2018-08-04T20:16:55.502Z,4.03
2018-08-04T20:19:23.533Z,3.80
2018-08-04T20:21:51.636Z,3.87
2018-08-04T20:24:19.650Z,3.90
2018-08-04T20:26:47.662Z,3.80
2018-08-04T20:29:15.691Z,4.10
2018-08-04T20:31:43.680Z,4.17
2018-08-04T20:34:11.686Z,5.13
2018-08-04T20:36:39.695Z,4.00
2018-08-04T20:39:08.641Z,4.53
2018-08-04T20:41:36.701Z,3.90
2018-08-04T20:44:04.682Z,3.77
2018-08-04T20:46:32.702Z,5.37
2018-08-04T20:49:00.698Z,4.17
2018-08-04T20:51:28.689Z,3.43
2018-08-04T20:53:56.700Z,4.00
2018-08-04T20:56:24.726Z,4.73
2018-08-04T20:58:52.734Z,4.17
2018-08-04T21:01:32.414Z,4.50
2018-08-04T21:04:00.436Z,4.30
2018-08-04T21:06:28.450Z,4.30
2018-08-04T21:08:56.550Z,4.40
2018-08-04T21:11:24.567Z,4.27
2018-08-04T21:13:52.564Z,4.90
2018-08-04T21:16:20.607Z,4.47
2018-08-04T21:18:48.683Z,4.27
2018-08-04T21:21:16.718Z,4.53
2018-08-04T21:23:44.770Z,4.30
2018-08-04T21:26:12.757Z,4.13
2018-08-04T21:28:40.774Z,4.93
2018-08-04T21:31:08.783Z,4.60
2018-08-04T21:33:36.783Z,5.10
2018-08-04T21:36:04.804Z,4.80
2018-08-04T21:38:32.810Z,5.63
2018-08-04T21:41:00.820Z,4.93
2018-08-04T21:43:28.799Z,5.33
2018-08-04T21:45:56.803Z,5.27
2018-08-04T21:48:24.798Z,4.67
2018-08-04T21:50:52.943Z,4.67
2018-08-04T21:53:20.946Z,4.43
2018-08-04T21:55:48.969Z,5.80
2018-08-04T21:58:16.964Z,6.90
2018-08-04T22:01:17.698Z,5.13
2018-08-04T22:03:45.692Z,5.00
2018-08-04T22:06:14.858Z,5.43
2018-08-04T22:08:54.318Z,4.87
2018-08-04T22:11:22.323Z,5.13
2018-08-04T22:13:50.322Z,5.77
2018-08-04T22:16:18.351Z,4.53
2018-08-04T22:18:46.359Z,5.13
2018-08-04T22:21:14.360Z,5.37
2018-08-04T22:23:42.371Z,5.27
2018-08-04T22:26:10.375Z,6.10
2018-08-04T22:28:38.390Z,5.43
2018-08-04T22:31:06.406Z,5.43
2018-08-04T22:33:34.418Z,5.43
2018-08-04T22:36:02.419Z,5.80
2018-08-04T22:38:30.436Z,6.70
2018-08-04T22:40:58.442Z,5.60
2018-08-04T22:43:26.455Z,6.60
2018-08-04T22:46:00.346Z,6.00
2018-08-04T22:48:28.359Z,6.47
2018-08-04T22:50:56.483Z,7.17
2018-08-04T22:53:24.504Z,6.97
2018-08-04T22:55:52.510Z,6.07
2018-08-04T22:58:20.518Z,5.80
2018-08-04T23:00:48.531Z,6.97
2018-08-04T23:03:16.551Z,6.20
2018-08-04T23:05:44.554Z,4.90
2018-08-04T23:08:13.130Z,6.20
2018-08-04T23:10:41.625Z,5.63
2018-08-04T23:13:10.138Z,6.00
2018-08-04T23:15:38.162Z,5.97
2018-08-04T23:18:06.326Z,5.07
2018-08-04T23:20:34.337Z,3.90
2018-08-04T23:23:02.369Z,3.60
2018-08-04T23:25:30.407Z,3.63
2018-08-04T23:27:58.450Z,3.20
2018-08-04T23:30:26.458Z,2.90
2018-08-04T23:32:54.814Z,3.33
2018-08-04T23:35:24.116Z,3.30
2018-08-04T23:37:52.226Z,2.53
2018-08-04T23:40:20.515Z,2.87
2018-08-04T23:42:48.553Z,2.20
2018-08-04T23:45:16.590Z,2.60
2018-08-04T23:47:44.918Z,2.37
2018-08-04T23:50:12.992Z,2.47
2018-08-04T23:52:41.153Z,2.00
2018-08-04T23:55:08.974Z,1.77
2018-08-04T23:57:36.998Z,2.23
